sensor_id;sensor_type;location;lat;lon;timestamp;P1;durP1;ratioP1;P2;durP2;ratioP2
57325;SDS011;43161;50.950;18.224;2023-05-07T00:01:46;9.70;;;3.50;;
57325;SDS011;43161;50.950;18.224;2023-05-07T00:04:11;8.30;;;3.60;;
57325;SDS011;43161;50.950;18.224;2023-05-07T00:06:38;10.80;;;3.70;;
57325;SDS011;43161;50.950;18.224;2023-05-07T00:09:05;9.90;;;3.80;;
57325;SDS011;43161;50.950;18.224;2023-05-07T00:11:31;9.90;;;3.90;;
57325;SDS011;43161;50.950;18.224;2023-05-07T00:13:57;10.00;;;3.80;;
57325;SDS011;43161;50.950;18.224;2023-05-07T00:16:23;9.50;;;3.80;;
57325;SDS011;43161;50.950;18.224;2023-05-07T00:18:48;10.10;;;3.80;;
57325;SDS011;43161;50.950;18.224;2023-05-07T00:21:14;10.00;;;4.20;;
57325;SDS011;43161;50.950;18.224;2023-05-07T00:23:40;9.00;;;3.70;;
57325;SDS011;43161;50.950;18.224;2023-05-07T00:26:05;9.10;;;3.90;;
57325;SDS011;43161;50.950;18.224;2023-05-07T00:28:31;10.80;;;4.10;;
57325;SDS011;43161;50.950;18.224;2023-05-07T00:30:57;9.80;;;3.90;;
57325;SDS011;43161;50.950;18.224;2023-05-07T00:33:23;10.30;;;4.30;;
57325;SDS011;43161;50.950;18.224;2023-05-07T00:35:48;10.30;;;3.90;;
57325;SDS011;43161;50.950;18.224;2023-05-07T00:38:14;10.40;;;4.30;;
57325;SDS011;43161;50.950;18.224;2023-05-07T00:40:40;11.70;;;4.10;;
57325;SDS011;43161;50.950;18.224;2023-05-07T00:43:06;9.50;;;4.10;;
57325;SDS011;43161;50.950;18.224;2023-05-07T00:45:32;9.90;;;4.60;;
57325;SDS011;43161;50.950;18.224;2023-05-07T00:48:01;10.60;;;4.30;;
57325;SDS011;43161;50.950;18.224;2023-05-07T00:50:27;9.40;;;4.20;;
57325;SDS011;43161;50.950;18.224;2023-05-07T00:52:54;11.90;;;4.50;;
57325;SDS011;43161;50.950;18.224;2023-05-07T00:55:21;10.00;;;4.70;;
57325;SDS011;43161;50.950;18.224;2023-05-07T00:57:47;10.30;;;4.60;;
57325;SDS011;43161;50.950;18.224;2023-05-07T01:00:14;10.40;;;4.80;;
57325;SDS011;43161;50.950;18.224;2023-05-07T01:02:40;12.20;;;4.60;;
57325;SDS011;43161;50.950;18.224;2023-05-07T01:05:07;10.10;;;4.50;;
57325;SDS011;43161;50.950;18.224;2023-05-07T01:07:35;11.10;;;4.50;;
57325;SDS011;43161;50.950;18.224;2023-05-07T01:10:02;12.80;;;5.00;;
57325;SDS011;43161;50.950;18.224;2023-05-07T01:12:29;10.20;;;4.40;;
57325;SDS011;43161;50.950;18.224;2023-05-07T01:14:55;10.10;;;4.60;;
57325;SDS011;43161;50.950;18.224;2023-05-07T01:17:21;11.10;;;4.70;;
57325;SDS011;43161;50.950;18.224;2023-05-07T01:19:50;10.90;;;4.80;;
57325;SDS011;43161;50.950;18.224;2023-05-07T01:25:02;9.80;;;4.40;;
57325;SDS011;43161;50.950;18.224;2023-05-07T01:27:29;12.50;;;4.20;;
57325;SDS011;43161;50.950;18.224;2023-05-07T01:29:55;9.90;;;3.80;;
57325;SDS011;43161;50.950;18.224;2023-05-07T01:32:22;10.10;;;3.80;;
57325;SDS011;43161;50.950;18.224;2023-05-07T01:34:52;11.40;;;3.90;;
57325;SDS011;43161;50.950;18.224;2023-05-07T01:37:19;9.50;;;4.00;;
57325;SDS011;43161;50.950;18.224;2023-05-07T01:39:47;9.80;;;3.30;;
57325;SDS011;43161;50.950;18.224;2023-05-07T01:42:13;9.80;;;3.80;;
57325;SDS011;43161;50.950;18.224;2023-05-07T01:44:39;9.80;;;3.80;;
57325;SDS011;43161;50.950;18.224;2023-05-07T01:47:05;9.90;;;3.90;;
57325;SDS011;43161;50.950;18.224;2023-05-07T01:49:31;11.60;;;4.00;;
57325;SDS011;43161;50.950;18.224;2023-05-07T01:51:57;10.80;;;4.50;;
57325;SDS011;43161;50.950;18.224;2023-05-07T01:54:27;9.30;;;4.00;;
57325;SDS011;43161;50.950;18.224;2023-05-07T01:56:54;10.30;;;4.30;;
57325;SDS011;43161;50.950;18.224;2023-05-07T01:59:21;9.80;;;4.00;;
57325;SDS011;43161;50.950;18.224;2023-05-07T02:01:47;11.30;;;4.20;;
57325;SDS011;43161;50.950;18.224;2023-05-07T02:04:13;9.90;;;4.20;;
57325;SDS011;43161;50.950;18.224;2023-05-07T02:06:39;10.60;;;4.20;;
57325;SDS011;43161;50.950;18.224;2023-05-07T02:09:04;10.50;;;4.40;;
57325;SDS011;43161;50.950;18.224;2023-05-07T02:11:30;10.10;;;4.50;;
57325;SDS011;43161;50.950;18.224;2023-05-07T02:13:56;10.50;;;5.00;;
57325;SDS011;43161;50.950;18.224;2023-05-07T02:16:22;10.90;;;4.90;;
57325;SDS011;43161;50.950;18.224;2023-05-07T02:18:49;11.10;;;4.40;;
57325;SDS011;43161;50.950;18.224;2023-05-07T02:21:15;10.70;;;4.60;;
57325;SDS011;43161;50.950;18.224;2023-05-07T02:23:41;11.00;;;4.30;;
57325;SDS011;43161;50.950;18.224;2023-05-07T02:26:06;10.40;;;4.50;;
57325;SDS011;43161;50.950;18.224;2023-05-07T02:28:33;9.70;;;4.20;;
57325;SDS011;43161;50.950;18.224;2023-05-07T02:31:04;13.10;;;4.20;;
57325;SDS011;43161;50.950;18.224;2023-05-07T02:33:30;11.30;;;4.30;;
57325;SDS011;43161;50.950;18.224;2023-05-07T02:35:56;9.70;;;4.30;;
57325;SDS011;43161;50.950;18.224;2023-05-07T02:38:22;12.90;;;4.60;;
57325;SDS011;43161;50.950;18.224;2023-05-07T02:40:48;10.80;;;4.30;;
57325;SDS011;43161;50.950;18.224;2023-05-07T02:43:15;10.10;;;4.20;;
57325;SDS011;43161;50.950;18.224;2023-05-07T02:45:41;10.40;;;4.00;;
57325;SDS011;43161;50.950;18.224;2023-05-07T02:48:08;9.10;;;3.60;;
57325;SDS011;43161;50.950;18.224;2023-05-07T02:50:34;9.20;;;3.40;;
57325;SDS011;43161;50.950;18.224;2023-05-07T02:53:00;8.10;;;3.60;;
57325;SDS011;43161;50.950;18.224;2023-05-07T02:55:26;9.30;;;3.50;;
57325;SDS011;43161;50.950;18.224;2023-05-07T02:57:52;9.00;;;3.10;;
57325;SDS011;43161;50.950;18.224;2023-05-07T03:00:18;7.90;;;3.00;;
57325;SDS011;43161;50.950;18.224;2023-05-07T03:02:45;8.20;;;3.20;;
57325;SDS011;43161;50.950;18.224;2023-05-07T03:05:11;8.80;;;3.50;;
57325;SDS011;43161;50.950;18.224;2023-05-07T03:07:38;8.00;;;3.10;;
57325;SDS011;43161;50.950;18.224;2023-05-07T03:10:04;9.80;;;2.90;;
57325;SDS011;43161;50.950;18.224;2023-05-07T03:12:30;8.90;;;3.10;;
57325;SDS011;43161;50.950;18.224;2023-05-07T03:14:57;8.20;;;3.20;;
57325;SDS011;43161;50.950;18.224;2023-05-07T03:17:22;7.20;;;2.70;;
57325;SDS011;43161;50.950;18.224;2023-05-07T03:19:50;8.40;;;3.00;;
57325;SDS011;43161;50.950;18.224;2023-05-07T03:22:16;8.30;;;3.10;;
57325;SDS011;43161;50.950;18.224;2023-05-07T03:24:42;9.70;;;3.00;;
57325;SDS011;43161;50.950;18.224;2023-05-07T03:27:07;9.50;;;2.80;;
57325;SDS011;43161;50.950;18.224;2023-05-07T03:29:33;7.10;;;2.60;;
57325;SDS011;43161;50.950;18.224;2023-05-07T03:31:59;8.00;;;2.40;;
57325;SDS011;43161;50.950;18.224;2023-05-07T03:34:25;7.50;;;2.20;;
57325;SDS011;43161;50.950;18.224;2023-05-07T03:36:50;8.00;;;2.40;;
57325;SDS011;43161;50.950;18.224;2023-05-07T03:39:16;9.00;;;2.30;;
57325;SDS011;43161;50.950;18.224;2023-05-07T03:41:42;7.60;;;2.30;;
57325;SDS011;43161;50.950;18.224;2023-05-07T03:44:08;7.60;;;2.10;;
57325;SDS011;43161;50.950;18.224;2023-05-07T03:46:34;7.40;;;2.00;;
57325;SDS011;43161;50.950;18.224;2023-05-07T03:48:59;6.90;;;2.10;;
57325;SDS011;43161;50.950;18.224;2023-05-07T03:51:25;5.80;;;2.00;;
57325;SDS011;43161;50.950;18.224;2023-05-07T03:53:52;7.20;;;2.00;;
57325;SDS011;43161;50.950;18.224;2023-05-07T03:56:22;5.20;;;1.80;;
57325;SDS011;43161;50.950;18.224;2023-05-07T03:58:52;5.60;;;1.80;;
57325;SDS011;43161;50.950;18.224;2023-05-07T04:01:18;6.20;;;1.90;;
57325;SDS011;43161;50.950;18.224;2023-05-07T04:03:44;6.00;;;1.70;;
57325;SDS011;43161;50.950;18.224;2023-05-07T04:06:10;5.60;;;2.00;;
57325;SDS011;43161;50.950;18.224;2023-05-07T04:08:36;5.50;;;1.80;;
57325;SDS011;43161;50.950;18.224;2023-05-07T04:11:02;7.10;;;2.30;;
57325;SDS011;43161;50.950;18.224;2023-05-07T04:13:27;11.70;;;2.90;;
57325;SDS011;43161;50.950;18.224;2023-05-07T04:15:55;8.00;;;2.90;;
57325;SDS011;43161;50.950;18.224;2023-05-07T04:18:21;9.30;;;2.90;;
57325;SDS011;43161;50.950;18.224;2023-05-07T04:20:47;9.30;;;3.20;;
57325;SDS011;43161;50.950;18.224;2023-05-07T04:23:14;11.20;;;3.70;;
57325;SDS011;43161;50.950;18.224;2023-05-07T04:25:40;11.20;;;4.10;;
57325;SDS011;43161;50.950;18.224;2023-05-07T04:28:07;10.30;;;4.50;;
57325;SDS011;43161;50.950;18.224;2023-05-07T04:30:33;9.20;;;4.10;;
57325;SDS011;43161;50.950;18.224;2023-05-07T04:32:58;9.40;;;4.30;;
57325;SDS011;43161;50.950;18.224;2023-05-07T04:35:24;9.50;;;4.40;;
57325;SDS011;43161;50.950;18.224;2023-05-07T04:37:50;11.30;;;4.30;;
57325;SDS011;43161;50.950;18.224;2023-05-07T04:40:16;10.60;;;4.50;;
57325;SDS011;43161;50.950;18.224;2023-05-07T04:42:42;10.90;;;4.30;;
57325;SDS011;43161;50.950;18.224;2023-05-07T04:45:08;9.50;;;4.10;;
57325;SDS011;43161;50.950;18.224;2023-05-07T04:47:36;8.80;;;3.80;;
57325;SDS011;43161;50.950;18.224;2023-05-07T04:50:02;9.40;;;3.90;;
57325;SDS011;43161;50.950;18.224;2023-05-07T04:52:28;11.00;;;4.30;;
57325;SDS011;43161;50.950;18.224;2023-05-07T04:54:54;8.90;;;3.90;;
57325;SDS011;43161;50.950;18.224;2023-05-07T04:57:20;9.60;;;4.00;;
57325;SDS011;43161;50.950;18.224;2023-05-07T04:59:46;9.10;;;3.90;;
57325;SDS011;43161;50.950;18.224;2023-05-07T05:02:12;10.40;;;4.10;;
57325;SDS011;43161;50.950;18.224;2023-05-07T05:04:38;8.70;;;3.70;;
57325;SDS011;43161;50.950;18.224;2023-05-07T05:07:03;9.20;;;3.70;;
57325;SDS011;43161;50.950;18.224;2023-05-07T05:09:29;9.40;;;4.20;;
57325;SDS011;43161;50.950;18.224;2023-05-07T05:11:55;8.90;;;3.90;;
57325;SDS011;43161;50.950;18.224;2023-05-07T05:14:21;9.50;;;4.00;;
57325;SDS011;43161;50.950;18.224;2023-05-07T05:16:47;9.10;;;3.70;;
57325;SDS011;43161;50.950;18.224;2023-05-07T05:19:13;8.40;;;3.80;;
57325;SDS011;43161;50.950;18.224;2023-05-07T05:21:39;9.10;;;3.80;;
57325;SDS011;43161;50.950;18.224;2023-05-07T05:24:05;8.00;;;3.30;;
57325;SDS011;43161;50.950;18.224;2023-05-07T05:26:31;8.80;;;3.50;;
57325;SDS011;43161;50.950;18.224;2023-05-07T05:28:57;8.90;;;3.30;;
57325;SDS011;43161;50.950;18.224;2023-05-07T05:31:23;9.40;;;3.60;;
57325;SDS011;43161;50.950;18.224;2023-05-07T05:33:48;10.60;;;4.50;;
57325;SDS011;43161;50.950;18.224;2023-05-07T05:36:14;10.10;;;4.30;;
57325;SDS011;43161;50.950;18.224;2023-05-07T05:38:40;9.30;;;3.90;;
57325;SDS011;43161;50.950;18.224;2023-05-07T05:41:06;9.20;;;3.90;;
57325;SDS011;43161;50.950;18.224;2023-05-07T05:43:32;8.70;;;3.90;;
57325;SDS011;43161;50.950;18.224;2023-05-07T05:45:58;8.60;;;3.40;;
57325;SDS011;43161;50.950;18.224;2023-05-07T05:48:24;9.10;;;3.40;;
57325;SDS011;43161;50.950;18.224;2023-05-07T05:50:49;8.20;;;3.20;;
57325;SDS011;43161;50.950;18.224;2023-05-07T05:53:15;7.70;;;3.10;;
57325;SDS011;43161;50.950;18.224;2023-05-07T05:55:41;6.50;;;2.60;;
57325;SDS011;43161;50.950;18.224;2023-05-07T05:58:08;7.20;;;2.80;;
57325;SDS011;43161;50.950;18.224;2023-05-07T06:00:34;11.10;;;3.50;;
57325;SDS011;43161;50.950;18.224;2023-05-07T06:03:00;11.20;;;3.60;;
57325;SDS011;43161;50.950;18.224;2023-05-07T06:05:26;8.70;;;3.50;;
57325;SDS011;43161;50.950;18.224;2023-05-07T06:07:52;9.00;;;3.20;;
57325;SDS011;43161;50.950;18.224;2023-05-07T06:10:18;7.70;;;3.10;;
57325;SDS011;43161;50.950;18.224;2023-05-07T06:12:43;9.50;;;3.50;;
57325;SDS011;43161;50.950;18.224;2023-05-07T06:15:10;8.60;;;3.20;;
57325;SDS011;43161;50.950;18.224;2023-05-07T06:17:36;7.40;;;2.80;;
57325;SDS011;43161;50.950;18.224;2023-05-07T06:20:01;7.90;;;2.70;;
57325;SDS011;43161;50.950;18.224;2023-05-07T06:22:27;8.90;;;2.60;;
57325;SDS011;43161;50.950;18.224;2023-05-07T06:24:53;8.40;;;2.70;;
57325;SDS011;43161;50.950;18.224;2023-05-07T06:27:19;6.90;;;2.50;;
57325;SDS011;43161;50.950;18.224;2023-05-07T06:29:45;7.60;;;2.80;;
57325;SDS011;43161;50.950;18.224;2023-05-07T06:32:11;8.40;;;2.90;;
57325;SDS011;43161;50.950;18.224;2023-05-07T06:34:38;8.60;;;3.30;;
57325;SDS011;43161;50.950;18.224;2023-05-07T06:37:05;8.80;;;3.60;;
57325;SDS011;43161;50.950;18.224;2023-05-07T06:39:31;9.70;;;4.00;;
57325;SDS011;43161;50.950;18.224;2023-05-07T06:41:57;11.20;;;4.70;;
57325;SDS011;43161;50.950;18.224;2023-05-07T06:44:24;13.60;;;5.10;;
57325;SDS011;43161;50.950;18.224;2023-05-07T06:46:50;13.10;;;5.80;;
57325;SDS011;43161;50.950;18.224;2023-05-07T06:49:16;12.80;;;6.10;;
57325;SDS011;43161;50.950;18.224;2023-05-07T06:51:41;12.40;;;6.00;;
57325;SDS011;43161;50.950;18.224;2023-05-07T06:54:07;11.60;;;4.90;;
57325;SDS011;43161;50.950;18.224;2023-05-07T06:56:33;10.30;;;4.50;;
57325;SDS011;43161;50.950;18.224;2023-05-07T06:59:00;10.30;;;4.10;;
57325;SDS011;43161;50.950;18.224;2023-05-07T07:01:26;10.40;;;3.50;;
57325;SDS011;43161;50.950;18.224;2023-05-07T07:03:52;8.10;;;3.40;;
57325;SDS011;43161;50.950;18.224;2023-05-07T07:06:17;8.80;;;3.20;;
57325;SDS011;43161;50.950;18.224;2023-05-07T07:08:43;8.70;;;3.30;;
57325;SDS011;43161;50.950;18.224;2023-05-07T07:11:09;9.10;;;3.50;;
57325;SDS011;43161;50.950;18.224;2023-05-07T07:13:35;8.10;;;3.30;;
57325;SDS011;43161;50.950;18.224;2023-05-07T07:16:01;8.20;;;3.30;;
57325;SDS011;43161;50.950;18.224;2023-05-07T07:18:28;8.80;;;3.70;;
57325;SDS011;43161;50.950;18.224;2023-05-07T07:20:54;9.20;;;3.70;;
57325;SDS011;43161;50.950;18.224;2023-05-07T07:23:20;9.50;;;3.70;;
57325;SDS011;43161;50.950;18.224;2023-05-07T07:25:46;9.30;;;3.20;;
57325;SDS011;43161;50.950;18.224;2023-05-07T07:28:12;9.60;;;3.80;;
57325;SDS011;43161;50.950;18.224;2023-05-07T07:30:38;9.70;;;3.90;;
57325;SDS011;43161;50.950;18.224;2023-05-07T07:33:05;8.80;;;3.70;;
57325;SDS011;43161;50.950;18.224;2023-05-07T07:35:31;9.40;;;4.00;;
57325;SDS011;43161;50.950;18.224;2023-05-07T07:37:58;8.80;;;3.40;;
57325;SDS011;43161;50.950;18.224;2023-05-07T07:40:24;9.30;;;3.80;;
57325;SDS011;43161;50.950;18.224;2023-05-07T07:42:50;9.10;;;4.20;;
57325;SDS011;43161;50.950;18.224;2023-05-07T07:45:17;9.80;;;3.70;;
57325;SDS011;43161;50.950;18.224;2023-05-07T07:47:43;10.10;;;4.80;;
57325;SDS011;43161;50.950;18.224;2023-05-07T07:50:09;11.00;;;4.50;;
57325;SDS011;43161;50.950;18.224;2023-05-07T07:52:35;10.40;;;4.80;;
57325;SDS011;43161;50.950;18.224;2023-05-07T07:55:01;12.60;;;5.60;;
57325;SDS011;43161;50.950;18.224;2023-05-07T07:57:28;10.40;;;4.70;;
57325;SDS011;43161;50.950;18.224;2023-05-07T07:59:54;11.30;;;5.20;;
57325;SDS011;43161;50.950;18.224;2023-05-07T08:02:24;10.00;;;4.70;;
57325;SDS011;43161;50.950;18.224;2023-05-07T08:04:55;11.00;;;5.00;;
57325;SDS011;43161;50.950;18.224;2023-05-07T08:07:21;10.10;;;5.00;;
57325;SDS011;43161;50.950;18.224;2023-05-07T08:09:48;10.90;;;5.10;;
57325;SDS011;43161;50.950;18.224;2023-05-07T08:12:13;11.70;;;5.00;;
57325;SDS011;43161;50.950;18.224;2023-05-07T08:14:39;13.10;;;5.30;;
57325;SDS011;43161;50.950;18.224;2023-05-07T08:17:06;11.20;;;4.80;;
57325;SDS011;43161;50.950;18.224;2023-05-07T08:19:32;10.70;;;5.10;;
57325;SDS011;43161;50.950;18.224;2023-05-07T08:21:57;10.90;;;5.00;;
57325;SDS011;43161;50.950;18.224;2023-05-07T08:24:23;9.70;;;4.60;;
57325;SDS011;43161;50.950;18.224;2023-05-07T08:26:49;11.70;;;5.60;;
57325;SDS011;43161;50.950;18.224;2023-05-07T08:29:15;10.70;;;5.20;;
57325;SDS011;43161;50.950;18.224;2023-05-07T08:31:40;10.70;;;5.30;;
57325;SDS011;43161;50.950;18.224;2023-05-07T08:34:06;9.80;;;4.50;;
57325;SDS011;43161;50.950;18.224;2023-05-07T08:36:32;10.90;;;4.80;;
57325;SDS011;43161;50.950;18.224;2023-05-07T08:38:59;11.50;;;5.20;;
57325;SDS011;43161;50.950;18.224;2023-05-07T08:41:25;10.40;;;4.80;;
57325;SDS011;43161;50.950;18.224;2023-05-07T08:43:51;10.00;;;4.70;;
57325;SDS011;43161;50.950;18.224;2023-05-07T08:46:18;10.30;;;4.40;;
57325;SDS011;43161;50.950;18.224;2023-05-07T08:48:48;9.90;;;4.40;;
57325;SDS011;43161;50.950;18.224;2023-05-07T08:51:16;8.70;;;4.10;;
57325;SDS011;43161;50.950;18.224;2023-05-07T08:53:43;10.60;;;4.30;;
57325;SDS011;43161;50.950;18.224;2023-05-07T08:56:10;10.50;;;4.60;;
57325;SDS011;43161;50.950;18.224;2023-05-07T08:58:36;10.00;;;4.50;;
57325;SDS011;43161;50.950;18.224;2023-05-07T09:01:03;10.40;;;4.80;;
57325;SDS011;43161;50.950;18.224;2023-05-07T09:03:32;9.70;;;4.10;;
57325;SDS011;43161;50.950;18.224;2023-05-07T09:05:58;10.40;;;4.90;;
57325;SDS011;43161;50.950;18.224;2023-05-07T09:08:24;10.40;;;4.40;;
57325;SDS011;43161;50.950;18.224;2023-05-07T09:10:51;24.70;;;5.00;;
57325;SDS011;43161;50.950;18.224;2023-05-07T09:13:18;9.80;;;4.00;;
57325;SDS011;43161;50.950;18.224;2023-05-07T09:15:43;8.90;;;3.80;;
57325;SDS011;43161;50.950;18.224;2023-05-07T09:18:09;9.00;;;4.20;;
57325;SDS011;43161;50.950;18.224;2023-05-07T09:20:39;9.80;;;4.30;;
57325;SDS011;43161;50.950;18.224;2023-05-07T09:23:08;9.60;;;4.00;;
57325;SDS011;43161;50.950;18.224;2023-05-07T09:25:34;10.00;;;3.80;;
57325;SDS011;43161;50.950;18.224;2023-05-07T09:28:01;8.50;;;3.10;;
57325;SDS011;43161;50.950;18.224;2023-05-07T09:30:28;8.20;;;3.30;;
57325;SDS011;43161;50.950;18.224;2023-05-07T09:32:56;8.50;;;3.10;;
57325;SDS011;43161;50.950;18.224;2023-05-07T09:35:23;7.70;;;3.00;;
57325;SDS011;43161;50.950;18.224;2023-05-07T09:37:59;7.50;;;2.70;;
57325;SDS011;43161;50.950;18.224;2023-05-07T09:40:26;8.70;;;2.90;;
57325;SDS011;43161;50.950;18.224;2023-05-07T09:42:53;8.30;;;2.90;;
57325;SDS011;43161;50.950;18.224;2023-05-07T09:45:22;8.60;;;2.70;;
57325;SDS011;43161;50.950;18.224;2023-05-07T09:47:55;9.30;;;2.90;;
57325;SDS011;43161;50.950;18.224;2023-05-07T09:50:30;8.30;;;2.80;;
57325;SDS011;43161;50.950;18.224;2023-05-07T09:52:58;7.50;;;2.50;;
57325;SDS011;43161;50.950;18.224;2023-05-07T09:55:24;6.40;;;2.60;;
57325;SDS011;43161;50.950;18.224;2023-05-07T09:57:51;7.30;;;2.70;;
57325;SDS011;43161;50.950;18.224;2023-05-07T10:00:21;7.30;;;2.40;;
57325;SDS011;43161;50.950;18.224;2023-05-07T10:02:50;7.40;;;2.10;;
57325;SDS011;43161;50.950;18.224;2023-05-07T10:05:17;8.10;;;2.70;;
57325;SDS011;43161;50.950;18.224;2023-05-07T10:07:49;7.80;;;2.70;;
57325;SDS011;43161;50.950;18.224;2023-05-07T10:10:16;8.40;;;2.80;;
57325;SDS011;43161;50.950;18.224;2023-05-07T10:12:42;8.80;;;3.00;;
57325;SDS011;43161;50.950;18.224;2023-05-07T10:15:09;8.30;;;2.90;;
57325;SDS011;43161;50.950;18.224;2023-05-07T10:17:36;8.00;;;2.80;;
57325;SDS011;43161;50.950;18.224;2023-05-07T10:20:03;8.90;;;2.90;;
57325;SDS011;43161;50.950;18.224;2023-05-07T10:22:31;7.40;;;2.50;;
57325;SDS011;43161;50.950;18.224;2023-05-07T10:24:59;7.30;;;2.50;;
57325;SDS011;43161;50.950;18.224;2023-05-07T10:27:27;8.40;;;2.50;;
57325;SDS011;43161;50.950;18.224;2023-05-07T10:32:42;8.90;;;3.00;;
57325;SDS011;43161;50.950;18.224;2023-05-07T10:35:14;6.70;;;2.70;;
57325;SDS011;43161;50.950;18.224;2023-05-07T10:37:46;10.00;;;2.90;;
57325;SDS011;43161;50.950;18.224;2023-05-07T10:40:12;8.10;;;2.60;;
57325;SDS011;43161;50.950;18.224;2023-05-07T10:42:38;8.20;;;2.40;;
57325;SDS011;43161;50.950;18.224;2023-05-07T10:50:34;7.50;;;2.50;;
57325;SDS011;43161;50.950;18.224;2023-05-07T10:53:19;7.10;;;2.70;;
57325;SDS011;43161;50.950;18.224;2023-05-07T10:55:47;8.80;;;2.90;;
57325;SDS011;43161;50.950;18.224;2023-05-07T11:00:57;8.20;;;3.30;;
57325;SDS011;43161;50.950;18.224;2023-05-07T11:03:27;9.10;;;3.70;;
57325;SDS011;43161;50.950;18.224;2023-05-07T11:17:05;9.40;;;3.60;;
57325;SDS011;43161;50.950;18.224;2023-05-07T11:24:56;9.60;;;3.60;;
57325;SDS011;43161;50.950;18.224;2023-05-07T11:27:25;10.00;;;4.10;;
57325;SDS011;43161;50.950;18.224;2023-05-07T11:29:51;10.10;;;3.70;;
57325;SDS011;43161;50.950;18.224;2023-05-07T11:32:24;10.20;;;4.20;;
57325;SDS011;43161;50.950;18.224;2023-05-07T11:34:51;10.10;;;4.20;;
57325;SDS011;43161;50.950;18.224;2023-05-07T11:37:20;10.10;;;4.20;;
57325;SDS011;43161;50.950;18.224;2023-05-07T11:39:47;11.00;;;4.50;;
57325;SDS011;43161;50.950;18.224;2023-05-07T11:44:56;10.50;;;4.40;;
57325;SDS011;43161;50.950;18.224;2023-05-07T11:47:22;9.40;;;4.20;;
57325;SDS011;43161;50.950;18.224;2023-05-07T11:49:50;12.40;;;3.80;;
57325;SDS011;43161;50.950;18.224;2023-05-07T11:52:17;10.20;;;4.10;;
57325;SDS011;43161;50.950;18.224;2023-05-07T11:57:16;10.80;;;4.30;;
57325;SDS011;43161;50.950;18.224;2023-05-07T11:59:42;10.60;;;4.50;;
57325;SDS011;43161;50.950;18.224;2023-05-07T12:02:10;10.00;;;4.20;;
57325;SDS011;43161;50.950;18.224;2023-05-07T12:04:36;10.00;;;4.40;;
57325;SDS011;43161;50.950;18.224;2023-05-07T12:07:03;10.90;;;4.20;;
57325;SDS011;43161;50.950;18.224;2023-05-07T12:09:29;9.10;;;3.80;;
57325;SDS011;43161;50.950;18.224;2023-05-07T12:12:03;10.70;;;4.30;;
57325;SDS011;43161;50.950;18.224;2023-05-07T12:14:29;10.00;;;4.50;;
57325;SDS011;43161;50.950;18.224;2023-05-07T12:16:55;10.30;;;4.60;;
57325;SDS011;43161;50.950;18.224;2023-05-07T12:19:21;9.60;;;4.40;;
57325;SDS011;43161;50.950;18.224;2023-05-07T12:21:47;9.60;;;4.60;;
57325;SDS011;43161;50.950;18.224;2023-05-07T12:24:14;10.30;;;4.30;;
57325;SDS011;43161;50.950;18.224;2023-05-07T12:26:40;11.20;;;4.50;;
57325;SDS011;43161;50.950;18.224;2023-05-07T12:29:06;9.50;;;4.20;;
57325;SDS011;43161;50.950;18.224;2023-05-07T12:31:32;9.70;;;4.20;;
57325;SDS011;43161;50.950;18.224;2023-05-07T12:33:58;9.30;;;3.90;;
57325;SDS011;43161;50.950;18.224;2023-05-07T12:36:24;10.40;;;4.40;;
57325;SDS011;43161;50.950;18.224;2023-05-07T12:38:51;9.80;;;4.00;;
57325;SDS011;43161;50.950;18.224;2023-05-07T12:41:16;8.90;;;3.80;;
57325;SDS011;43161;50.950;18.224;2023-05-07T12:43:43;11.40;;;4.10;;
57325;SDS011;43161;50.950;18.224;2023-05-07T12:46:10;11.10;;;4.90;;
57325;SDS011;43161;50.950;18.224;2023-05-07T12:48:36;10.30;;;4.20;;
57325;SDS011;43161;50.950;18.224;2023-05-07T12:51:03;11.30;;;4.40;;
57325;SDS011;43161;50.950;18.224;2023-05-07T12:53:29;9.10;;;3.90;;
57325;SDS011;43161;50.950;18.224;2023-05-07T12:55:57;9.60;;;4.30;;
57325;SDS011;43161;50.950;18.224;2023-05-07T12:58:30;8.50;;;3.80;;
57325;SDS011;43161;50.950;18.224;2023-05-07T13:01:00;8.80;;;3.90;;
57325;SDS011;43161;50.950;18.224;2023-05-07T13:03:30;9.10;;;3.90;;
57325;SDS011;43161;50.950;18.224;2023-05-07T13:05:58;9.50;;;3.90;;
57325;SDS011;43161;50.950;18.224;2023-05-07T13:08:47;10.00;;;3.70;;
57325;SDS011;43161;50.950;18.224;2023-05-07T13:11:12;9.80;;;4.00;;
57325;SDS011;43161;50.950;18.224;2023-05-07T13:13:39;9.20;;;3.50;;
57325;SDS011;43161;50.950;18.224;2023-05-07T13:16:06;9.30;;;3.90;;
57325;SDS011;43161;50.950;18.224;2023-05-07T13:18:33;11.40;;;4.30;;
57325;SDS011;43161;50.950;18.224;2023-05-07T13:20:59;10.30;;;4.10;;
57325;SDS011;43161;50.950;18.224;2023-05-07T13:23:26;11.50;;;4.10;;
57325;SDS011;43161;50.950;18.224;2023-05-07T13:25:52;9.20;;;3.80;;
57325;SDS011;43161;50.950;18.224;2023-05-07T13:28:19;8.90;;;3.50;;
57325;SDS011;43161;50.950;18.224;2023-05-07T13:30:45;9.10;;;4.10;;
57325;SDS011;43161;50.950;18.224;2023-05-07T13:33:11;9.20;;;3.90;;
57325;SDS011;43161;50.950;18.224;2023-05-07T13:35:37;10.00;;;4.30;;
57325;SDS011;43161;50.950;18.224;2023-05-07T13:38:05;11.20;;;4.40;;
57325;SDS011;43161;50.950;18.224;2023-05-07T13:40:30;10.80;;;4.70;;
57325;SDS011;43161;50.950;18.224;2023-05-07T13:42:57;10.90;;;5.00;;
57325;SDS011;43161;50.950;18.224;2023-05-07T13:45:24;11.10;;;5.40;;
57325;SDS011;43161;50.950;18.224;2023-05-07T13:47:51;18.30;;;6.40;;
57325;SDS011;43161;50.950;18.224;2023-05-07T13:50:17;12.50;;;5.30;;
57325;SDS011;43161;50.950;18.224;2023-05-07T13:52:43;10.20;;;4.60;;
57325;SDS011;43161;50.950;18.224;2023-05-07T13:55:25;11.80;;;4.90;;
57325;SDS011;43161;50.950;18.224;2023-05-07T13:57:55;10.40;;;4.90;;
57325;SDS011;43161;50.950;18.224;2023-05-07T14:00:22;9.10;;;4.00;;
57325;SDS011;43161;50.950;18.224;2023-05-07T14:02:48;10.10;;;4.50;;
57325;SDS011;43161;50.950;18.224;2023-05-07T14:05:14;8.70;;;3.90;;
57325;SDS011;43161;50.950;18.224;2023-05-07T14:07:40;10.00;;;4.10;;
57325;SDS011;43161;50.950;18.224;2023-05-07T14:10:06;10.20;;;4.90;;
57325;SDS011;43161;50.950;18.224;2023-05-07T14:12:32;10.10;;;4.40;;
57325;SDS011;43161;50.950;18.224;2023-05-07T14:14:58;10.00;;;4.50;;
57325;SDS011;43161;50.950;18.224;2023-05-07T14:17:24;10.70;;;4.40;;
57325;SDS011;43161;50.950;18.224;2023-05-07T14:19:52;9.40;;;3.70;;
57325;SDS011;43161;50.950;18.224;2023-05-07T14:22:21;10.00;;;4.20;;
57325;SDS011;43161;50.950;18.224;2023-05-07T14:24:48;9.30;;;4.50;;
57325;SDS011;43161;50.950;18.224;2023-05-07T14:27:14;11.80;;;5.30;;
57325;SDS011;43161;50.950;18.224;2023-05-07T14:29:40;9.60;;;4.30;;
57325;SDS011;43161;50.950;18.224;2023-05-07T14:32:07;10.40;;;4.40;;
57325;SDS011;43161;50.950;18.224;2023-05-07T14:34:33;9.30;;;4.40;;
57325;SDS011;43161;50.950;18.224;2023-05-07T14:36:59;12.00;;;4.90;;
57325;SDS011;43161;50.950;18.224;2023-05-07T14:39:25;9.30;;;4.10;;
57325;SDS011;43161;50.950;18.224;2023-05-07T14:41:51;10.30;;;4.10;;
57325;SDS011;43161;50.950;18.224;2023-05-07T14:44:20;9.10;;;3.90;;
57325;SDS011;43161;50.950;18.224;2023-05-07T14:46:46;10.10;;;4.50;;
57325;SDS011;43161;50.950;18.224;2023-05-07T14:49:12;10.80;;;4.30;;
57325;SDS011;43161;50.950;18.224;2023-05-07T14:51:43;10.30;;;4.40;;
57325;SDS011;43161;50.950;18.224;2023-05-07T14:54:10;10.90;;;4.70;;
57325;SDS011;43161;50.950;18.224;2023-05-07T14:56:35;11.00;;;4.60;;
57325;SDS011;43161;50.950;18.224;2023-05-07T14:59:02;11.00;;;4.80;;
57325;SDS011;43161;50.950;18.224;2023-05-07T15:01:28;11.10;;;4.40;;